sensor_id;sensor_type;location;lat;lon;timestamp;P1;durP1;ratioP1;P2;durP2;ratioP2
40533;SDS011;26233;51.894;10.192;2023-02-15T00:00:46;5.43;;;4.83;;
40533;SDS011;26233;51.894;10.192;2023-02-15T00:03:14;6.73;;;5.63;;
40533;SDS011;26233;51.894;10.192;2023-02-15T00:05:43;7.30;;;5.70;;
40533;SDS011;26233;51.894;10.192;2023-02-15T00:08:10;7.73;;;6.10;;
40533;SDS011;26233;51.894;10.192;2023-02-15T00:10:37;7.13;;;6.43;;
40533;SDS011;26233;51.894;10.192;2023-02-15T00:13:04;6.83;;;6.13;;
40533;SDS011;26233;51.894;10.192;2023-02-15T00:15:31;6.23;;;5.63;;
40533;SDS011;26233;51.894;10.192;2023-02-15T00:17:58;6.10;;;5.50;;
40533;SDS011;26233;51.894;10.192;2023-02-15T00:20:25;6.87;;;5.60;;
40533;SDS011;26233;51.894;10.192;2023-02-15T00:22:53;5.70;;;5.10;;
40533;SDS011;26233;51.894;10.192;2023-02-15T00:25:21;5.00;;;4.50;;
40533;SDS011;26233;51.894;10.192;2023-02-15T00:27:48;5.73;;;4.67;;
40533;SDS011;26233;51.894;10.192;2023-02-15T00:30:15;4.53;;;4.13;;
40533;SDS011;26233;51.894;10.192;2023-02-15T00:32:42;4.13;;;3.70;;
40533;SDS011;26233;51.894;10.192;2023-02-15T00:35:09;3.53;;;3.23;;
40533;SDS011;26233;51.894;10.192;2023-02-15T00:37:37;3.70;;;3.40;;
40533;SDS011;26233;51.894;10.192;2023-02-15T00:40:06;3.20;;;2.90;;
40533;SDS011;26233;51.894;10.192;2023-02-15T00:42:34;3.53;;;3.23;;
40533;SDS011;26233;51.894;10.192;2023-02-15T00:45:01;3.67;;;3.00;;
40533;SDS011;26233;51.894;10.192;2023-02-15T00:47:28;3.73;;;3.43;;
40533;SDS011;26233;51.894;10.192;2023-02-15T00:49:55;4.07;;;3.40;;
40533;SDS011;26233;51.894;10.192;2023-02-15T00:52:22;4.10;;;3.70;;
40533;SDS011;26233;51.894;10.192;2023-02-15T00:54:49;5.07;;;4.57;;
40533;SDS011;26233;51.894;10.192;2023-02-15T00:57:18;6.17;;;5.53;;
40533;SDS011;26233;51.894;10.192;2023-02-15T00:59:45;6.43;;;5.30;;
40533;SDS011;26233;51.894;10.192;2023-02-15T01:02:12;6.30;;;5.30;;
40533;SDS011;26233;51.894;10.192;2023-02-15T01:04:39;6.33;;;5.43;;
40533;SDS011;26233;51.894;10.192;2023-02-15T01:07:06;7.10;;;5.93;;
40533;SDS011;26233;51.894;10.192;2023-02-15T01:09:34;6.50;;;5.23;;
40533;SDS011;26233;51.894;10.192;2023-02-15T01:12:01;6.60;;;5.87;;
40533;SDS011;26233;51.894;10.192;2023-02-15T01:14:29;6.13;;;5.53;;
40533;SDS011;26233;51.894;10.192;2023-02-15T01:16:56;6.70;;;5.90;;
40533;SDS011;26233;51.894;10.192;2023-02-15T01:19:23;5.77;;;5.13;;
40533;SDS011;26233;51.894;10.192;2023-02-15T01:21:52;6.13;;;5.43;;
40533;SDS011;26233;51.894;10.192;2023-02-15T01:24:19;7.83;;;6.10;;
40533;SDS011;26233;51.894;10.192;2023-02-15T01:26:46;6.90;;;5.90;;
40533;SDS011;26233;51.894;10.192;2023-02-15T01:29:13;7.23;;;5.83;;
40533;SDS011;26233;51.894;10.192;2023-02-15T01:31:41;6.43;;;5.77;;
40533;SDS011;26233;51.894;10.192;2023-02-15T01:34:08;6.30;;;5.23;;
40533;SDS011;26233;51.894;10.192;2023-02-15T01:36:37;6.57;;;5.63;;
40533;SDS011;26233;51.894;10.192;2023-02-15T01:39:04;7.13;;;6.43;;
40533;SDS011;26233;51.894;10.192;2023-02-15T01:41:32;9.63;;;7.07;;
40533;SDS011;26233;51.894;10.192;2023-02-15T01:44:00;8.10;;;7.20;;
40533;SDS011;26233;51.894;10.192;2023-02-15T01:46:30;7.57;;;6.73;;
40533;SDS011;26233;51.894;10.192;2023-02-15T01:49:04;8.00;;;6.87;;
40533;SDS011;26233;51.894;10.192;2023-02-15T01:51:37;7.53;;;6.77;;
40533;SDS011;26233;51.894;10.192;2023-02-15T01:54:09;8.07;;;6.60;;
40533;SDS011;26233;51.894;10.192;2023-02-15T01:56:41;6.20;;;5.60;;
40533;SDS011;26233;51.894;10.192;2023-02-15T01:59:09;5.87;;;5.27;;
40533;SDS011;26233;51.894;10.192;2023-02-15T02:01:41;5.87;;;5.27;;
40533;SDS011;26233;51.894;10.192;2023-02-15T02:04:11;5.07;;;4.57;;
40533;SDS011;26233;51.894;10.192;2023-02-15T02:06:43;4.07;;;3.73;;
40533;SDS011;26233;51.894;10.192;2023-02-15T02:09:13;4.43;;;4.03;;
40533;SDS011;26233;51.894;10.192;2023-02-15T02:11:40;4.30;;;3.77;;
40533;SDS011;26233;51.894;10.192;2023-02-15T02:14:11;5.40;;;4.27;;
40533;SDS011;26233;51.894;10.192;2023-02-15T02:16:40;4.50;;;4.10;;
40533;SDS011;26233;51.894;10.192;2023-02-15T02:22:55;4.97;;;3.80;;
40533;SDS011;26233;51.894;10.192;2023-02-15T02:26:09;3.37;;;3.07;;
40533;SDS011;26233;51.894;10.192;2023-02-15T02:35:57;3.17;;;2.87;;
40533;SDS011;26233;51.894;10.192;2023-02-15T02:38:36;3.87;;;3.00;;
40533;SDS011;26233;51.894;10.192;2023-02-15T02:41:20;3.23;;;2.93;;
40533;SDS011;26233;51.894;10.192;2023-02-15T02:43:59;3.47;;;3.17;;
40533;SDS011;26233;51.894;10.192;2023-02-15T02:46:37;3.37;;;3.07;;
40533;SDS011;26233;51.894;10.192;2023-02-15T02:49:13;3.83;;;3.47;;
40533;SDS011;26233;51.894;10.192;2023-02-15T02:51:40;3.83;;;3.47;;
40533;SDS011;26233;51.894;10.192;2023-02-15T02:54:07;3.87;;;3.37;;
40533;SDS011;26233;51.894;10.192;2023-02-15T02:56:36;4.27;;;3.87;;
40533;SDS011;26233;51.894;10.192;2023-02-15T02:59:08;4.97;;;4.20;;
40533;SDS011;26233;51.894;10.192;2023-02-15T03:01:42;4.40;;;3.70;;
40533;SDS011;26233;51.894;10.192;2023-02-15T03:04:14;4.03;;;3.63;;
40533;SDS011;26233;51.894;10.192;2023-02-15T03:06:45;5.00;;;4.50;;
40533;SDS011;26233;51.894;10.192;2023-02-15T03:09:20;4.47;;;4.07;;
40533;SDS011;26233;51.894;10.192;2023-02-15T03:12:06;4.40;;;4.00;;
40533;SDS011;26233;51.894;10.192;2023-02-15T03:14:35;4.50;;;4.10;;
40533;SDS011;26233;51.894;10.192;2023-02-15T03:17:03;5.43;;;4.90;;
40533;SDS011;26233;51.894;10.192;2023-02-15T03:19:34;4.90;;;4.40;;
40533;SDS011;26233;51.894;10.192;2023-02-15T03:22:03;4.40;;;4.00;;
40533;SDS011;26233;51.894;10.192;2023-02-15T03:24:36;4.87;;;4.40;;
40533;SDS011;26233;51.894;10.192;2023-02-15T03:27:07;4.80;;;4.37;;
40533;SDS011;26233;51.894;10.192;2023-02-15T03:29:42;4.17;;;3.77;;
40533;SDS011;26233;51.894;10.192;2023-02-15T03:32:11;4.30;;;3.90;;
40533;SDS011;26233;51.894;10.192;2023-02-15T03:34:42;4.13;;;3.73;;
40533;SDS011;26233;51.894;10.192;2023-02-15T03:37:10;4.60;;;4.07;;
40533;SDS011;26233;51.894;10.192;2023-02-15T03:39:45;4.27;;;3.83;;
40533;SDS011;26233;51.894;10.192;2023-02-15T03:42:19;4.83;;;4.33;;
40533;SDS011;26233;51.894;10.192;2023-02-15T03:44:54;4.30;;;3.90;;
40533;SDS011;26233;51.894;10.192;2023-02-15T03:47:25;4.67;;;4.27;;
40533;SDS011;26233;51.894;10.192;2023-02-15T03:49:59;4.40;;;4.00;;
40533;SDS011;26233;51.894;10.192;2023-02-15T03:52:50;3.90;;;3.60;;
40533;SDS011;26233;51.894;10.192;2023-02-15T03:55:16;3.43;;;3.13;;
40533;SDS011;26233;51.894;10.192;2023-02-15T03:57:43;2.80;;;2.60;;
40533;SDS011;26233;51.894;10.192;2023-02-15T04:00:28;2.70;;;2.50;;
40533;SDS011;26233;51.894;10.192;2023-02-15T04:03:22;2.60;;;2.40;;
40533;SDS011;26233;51.894;10.192;2023-02-15T04:05:57;3.30;;;3.00;;
40533;SDS011;26233;51.894;10.192;2023-02-15T04:08:24;3.50;;;3.20;;
40533;SDS011;26233;51.894;10.192;2023-02-15T04:11:11;4.13;;;3.40;;
40533;SDS011;26233;51.894;10.192;2023-02-15T04:13:37;4.03;;;3.67;;
40533;SDS011;26233;51.894;10.192;2023-02-15T04:16:04;4.00;;;3.60;;
40533;SDS011;26233;51.894;10.192;2023-02-15T04:18:31;4.10;;;3.70;;
40533;SDS011;26233;51.894;10.192;2023-02-15T04:21:19;4.03;;;3.63;;
40533;SDS011;26233;51.894;10.192;2023-02-15T04:24:06;4.20;;;3.80;;
40533;SDS011;26233;51.894;10.192;2023-02-15T04:26:51;3.93;;;3.60;;
40533;SDS011;26233;51.894;10.192;2023-02-15T04:29:18;4.03;;;3.60;;
40533;SDS011;26233;51.894;10.192;2023-02-15T04:31:46;3.77;;;3.37;;
40533;SDS011;26233;51.894;10.192;2023-02-15T04:34:13;3.60;;;3.30;;
40533;SDS011;26233;51.894;10.192;2023-02-15T04:36:41;3.63;;;3.27;;
40533;SDS011;26233;51.894;10.192;2023-02-15T04:39:11;3.93;;;3.60;;
40533;SDS011;26233;51.894;10.192;2023-02-15T04:41:39;3.50;;;3.20;;
40533;SDS011;26233;51.894;10.192;2023-02-15T04:44:06;3.60;;;3.30;;
40533;SDS011;26233;51.894;10.192;2023-02-15T04:46:33;3.87;;;3.47;;
40533;SDS011;26233;51.894;10.192;2023-02-15T04:49:01;3.57;;;3.27;;
40533;SDS011;26233;51.894;10.192;2023-02-15T04:51:28;3.63;;;3.33;;
40533;SDS011;26233;51.894;10.192;2023-02-15T04:53:56;3.83;;;3.53;;
40533;SDS011;26233;51.894;10.192;2023-02-15T04:56:23;3.40;;;3.10;;
40533;SDS011;26233;51.894;10.192;2023-02-15T04:58:53;3.20;;;2.90;;
40533;SDS011;26233;51.894;10.192;2023-02-15T05:01:20;3.37;;;3.07;;
40533;SDS011;26233;51.894;10.192;2023-02-15T05:03:47;3.37;;;3.07;;
40533;SDS011;26233;51.894;10.192;2023-02-15T05:06:14;3.63;;;3.13;;
40533;SDS011;26233;51.894;10.192;2023-02-15T05:08:41;3.83;;;3.13;;
40533;SDS011;26233;51.894;10.192;2023-02-15T05:11:09;3.20;;;2.90;;
40533;SDS011;26233;51.894;10.192;2023-02-15T05:13:36;3.37;;;3.07;;
40533;SDS011;26233;51.894;10.192;2023-02-15T05:16:03;3.50;;;3.20;;
40533;SDS011;26233;51.894;10.192;2023-02-15T05:18:31;4.07;;;3.67;;
40533;SDS011;26233;51.894;10.192;2023-02-15T05:20:58;3.80;;;3.40;;
40533;SDS011;26233;51.894;10.192;2023-02-15T05:23:25;4.23;;;3.77;;
40533;SDS011;26233;51.894;10.192;2023-02-15T05:25:52;4.33;;;3.90;;
40533;SDS011;26233;51.894;10.192;2023-02-15T05:28:38;3.93;;;3.60;;
40533;SDS011;26233;51.894;10.192;2023-02-15T05:31:05;4.33;;;3.93;;
40533;SDS011;26233;51.894;10.192;2023-02-15T05:33:37;4.27;;;3.87;;
40533;SDS011;26233;51.894;10.192;2023-02-15T05:36:05;4.23;;;3.83;;
40533;SDS011;26233;51.894;10.192;2023-02-15T05:38:33;4.63;;;3.87;;
40533;SDS011;26233;51.894;10.192;2023-02-15T05:41:01;4.20;;;3.80;;
40533;SDS011;26233;51.894;10.192;2023-02-15T05:43:29;4.77;;;4.37;;
40533;SDS011;26233;51.894;10.192;2023-02-15T05:45:58;5.57;;;4.97;;
40533;SDS011;26233;51.894;10.192;2023-02-15T05:48:25;6.67;;;5.97;;
40533;SDS011;26233;51.894;10.192;2023-02-15T05:50:59;6.03;;;5.43;;
40533;SDS011;26233;51.894;10.192;2023-02-15T05:53:30;5.07;;;4.57;;
40533;SDS011;26233;51.894;10.192;2023-02-15T05:56:00;4.97;;;4.47;;
40533;SDS011;26233;51.894;10.192;2023-02-15T05:58:29;5.37;;;4.50;;
40533;SDS011;26233;51.894;10.192;2023-02-15T06:01:06;4.63;;;4.23;;
40533;SDS011;26233;51.894;10.192;2023-02-15T06:03:36;4.40;;;3.90;;
40533;SDS011;26233;51.894;10.192;2023-02-15T06:06:04;4.97;;;4.47;;
40533;SDS011;26233;51.894;10.192;2023-02-15T06:08:31;4.90;;;4.47;;
40533;SDS011;26233;51.894;10.192;2023-02-15T06:10:59;5.27;;;4.37;;
40533;SDS011;26233;51.894;10.192;2023-02-15T06:13:26;4.33;;;3.93;;
40533;SDS011;26233;51.894;10.192;2023-02-15T06:15:53;4.50;;;4.10;;
40533;SDS011;26233;51.894;10.192;2023-02-15T06:18:22;4.70;;;4.20;;
40533;SDS011;26233;51.894;10.192;2023-02-15T06:20:49;4.13;;;3.73;;
40533;SDS011;26233;51.894;10.192;2023-02-15T06:23:16;4.40;;;4.00;;
40533;SDS011;26233;51.894;10.192;2023-02-15T06:25:44;5.10;;;4.20;;
40533;SDS011;26233;51.894;10.192;2023-02-15T06:28:12;4.40;;;3.97;;
40533;SDS011;26233;51.894;10.192;2023-02-15T06:30:39;5.00;;;4.50;;
40533;SDS011;26233;51.894;10.192;2023-02-15T06:33:06;4.80;;;4.40;;
40533;SDS011;26233;51.894;10.192;2023-02-15T06:35:34;4.33;;;3.93;;
40533;SDS011;26233;51.894;10.192;2023-02-15T06:38:01;5.07;;;4.57;;
40533;SDS011;26233;51.894;10.192;2023-02-15T06:40:29;4.97;;;4.47;;
40533;SDS011;26233;51.894;10.192;2023-02-15T06:42:56;4.03;;;3.63;;
40533;SDS011;26233;51.894;10.192;2023-02-15T06:45:23;4.50;;;4.10;;
40533;SDS011;26233;51.894;10.192;2023-02-15T06:47:50;4.20;;;3.80;;
40533;SDS011;26233;51.894;10.192;2023-02-15T06:50:17;4.37;;;3.97;;
40533;SDS011;26233;51.894;10.192;2023-02-15T06:52:46;5.10;;;4.13;;
40533;SDS011;26233;51.894;10.192;2023-02-15T06:55:13;4.77;;;4.27;;
40533;SDS011;26233;51.894;10.192;2023-02-15T06:57:40;4.53;;;4.10;;
40533;SDS011;26233;51.894;10.192;2023-02-15T07:00:08;4.90;;;4.40;;
40533;SDS011;26233;51.894;10.192;2023-02-15T07:02:36;5.43;;;4.17;;
40533;SDS011;26233;51.894;10.192;2023-02-15T07:05:03;4.13;;;3.70;;
40533;SDS011;26233;51.894;10.192;2023-02-15T07:07:30;4.93;;;4.43;;
40533;SDS011;26233;51.894;10.192;2023-02-15T07:09:58;4.73;;;4.23;;
40533;SDS011;26233;51.894;10.192;2023-02-15T07:12:25;5.77;;;4.20;;
40533;SDS011;26233;51.894;10.192;2023-02-15T07:15:09;5.10;;;4.50;;
40533;SDS011;26233;51.894;10.192;2023-02-15T07:17:38;4.80;;;4.40;;
40533;SDS011;26233;51.894;10.192;2023-02-15T07:20:06;4.37;;;3.97;;
40533;SDS011;26233;51.894;10.192;2023-02-15T07:22:36;4.73;;;4.27;;
40533;SDS011;26233;51.894;10.192;2023-02-15T07:25:05;4.20;;;3.80;;
40533;SDS011;26233;51.894;10.192;2023-02-15T07:27:34;4.37;;;3.97;;
40533;SDS011;26233;51.894;10.192;2023-02-15T07:30:02;4.70;;;4.20;;
40533;SDS011;26233;51.894;10.192;2023-02-15T07:32:30;4.77;;;4.27;;
40533;SDS011;26233;51.894;10.192;2023-02-15T07:34:58;4.70;;;4.30;;
40533;SDS011;26233;51.894;10.192;2023-02-15T07:37:26;4.67;;;4.17;;
40533;SDS011;26233;51.894;10.192;2023-02-15T07:39:53;5.00;;;4.50;;
40533;SDS011;26233;51.894;10.192;2023-02-15T07:42:21;4.93;;;4.43;;
40533;SDS011;26233;51.894;10.192;2023-02-15T07:44:48;5.37;;;4.33;;
40533;SDS011;26233;51.894;10.192;2023-02-15T07:47:15;4.90;;;4.50;;
40533;SDS011;26233;51.894;10.192;2023-02-15T07:49:42;4.67;;;4.27;;
40533;SDS011;26233;51.894;10.192;2023-02-15T07:52:11;3.93;;;3.63;;
40533;SDS011;26233;51.894;10.192;2023-02-15T07:54:38;4.80;;;4.30;;
40533;SDS011;26233;51.894;10.192;2023-02-15T07:57:05;4.43;;;4.03;;
40533;SDS011;26233;51.894;10.192;2023-02-15T07:59:33;4.30;;;3.90;;
40533;SDS011;26233;51.894;10.192;2023-02-15T08:02:02;4.63;;;4.23;;
40533;SDS011;26233;51.894;10.192;2023-02-15T08:04:29;5.03;;;4.23;;
40533;SDS011;26233;51.894;10.192;2023-02-15T08:06:56;4.00;;;3.70;;
40533;SDS011;26233;51.894;10.192;2023-02-15T08:09:23;4.03;;;3.70;;
40533;SDS011;26233;51.894;10.192;2023-02-15T08:11:50;4.17;;;3.77;;
40533;SDS011;26233;51.894;10.192;2023-02-15T08:14:18;4.23;;;3.93;;
40533;SDS011;26233;51.894;10.192;2023-02-15T08:16:48;4.63;;;4.22;;
40533;SDS011;26233;51.894;10.192;2023-02-15T08:19:18;4.65;;;4.25;;
40533;SDS011;26233;51.894;10.192;2023-02-15T08:21:48;4.88;;;4.47;;
40533;SDS011;26233;51.894;10.192;2023-02-15T08:24:17;4.40;;;4.00;;
40533;SDS011;26233;51.894;10.192;2023-02-15T08:26:46;4.77;;;4.30;;
40533;SDS011;26233;51.894;10.192;2023-02-15T08:29:14;5.10;;;4.60;;
40533;SDS011;26233;51.894;10.192;2023-02-15T08:31:44;5.10;;;4.60;;
40533;SDS011;26233;51.894;10.192;2023-02-15T08:34:14;5.40;;;4.90;;
40533;SDS011;26233;51.894;10.192;2023-02-15T08:36:43;5.73;;;5.23;;
40533;SDS011;26233;51.894;10.192;2023-02-15T08:39:11;6.20;;;5.60;;
40533;SDS011;26233;51.894;10.192;2023-02-15T08:41:41;6.73;;;6.03;;
40533;SDS011;26233;51.894;10.192;2023-02-15T08:44:10;5.97;;;5.37;;
40533;SDS011;26233;51.894;10.192;2023-02-15T08:46:38;6.37;;;5.57;;
40533;SDS011;26233;51.894;10.192;2023-02-15T08:49:08;6.27;;;5.67;;
40533;SDS011;26233;51.894;10.192;2023-02-15T08:51:39;7.20;;;6.50;;
40533;SDS011;26233;51.894;10.192;2023-02-15T08:54:06;6.77;;;6.07;;
40533;SDS011;26233;51.894;10.192;2023-02-15T08:56:37;7.13;;;6.43;;
40533;SDS011;26233;51.894;10.192;2023-02-15T08:59:06;6.73;;;6.13;;
40533;SDS011;26233;51.894;10.192;2023-02-15T09:01:38;6.67;;;6.03;;
40533;SDS011;26233;51.894;10.192;2023-02-15T09:04:05;7.03;;;6.33;;
40533;SDS011;26233;51.894;10.192;2023-02-15T09:06:34;6.37;;;5.77;;
40533;SDS011;26233;51.894;10.192;2023-02-15T09:09:03;6.53;;;5.97;;
40533;SDS011;26233;51.894;10.192;2023-02-15T09:11:32;6.17;;;5.67;;
40533;SDS011;26233;51.894;10.192;2023-02-15T09:14:02;6.53;;;5.93;;
40533;SDS011;26233;51.894;10.192;2023-02-15T09:16:31;6.45;;;5.85;;
40533;SDS011;26233;51.894;10.192;2023-02-15T09:19:00;6.75;;;6.15;;
40533;SDS011;26233;51.894;10.192;2023-02-15T09:21:29;7.65;;;6.93;;
40533;SDS011;26233;51.894;10.192;2023-02-15T09:23:57;7.80;;;6.90;;
40533;SDS011;26233;51.894;10.192;2023-02-15T09:26:28;8.50;;;7.68;;
40533;SDS011;26233;51.894;10.192;2023-02-15T09:28:57;8.55;;;7.65;;
40533;SDS011;26233;51.894;10.192;2023-02-15T09:31:28;7.75;;;7.00;;
40533;SDS011;26233;51.894;10.192;2023-02-15T09:33:57;7.53;;;6.82;;
40533;SDS011;26233;51.894;10.192;2023-02-15T09:36:27;6.60;;;6.00;;
40533;SDS011;26233;51.894;10.192;2023-02-15T09:38:58;6.10;;;5.50;;
40533;SDS011;26233;51.894;10.192;2023-02-15T09:44:41;4.90;;;4.50;;
40533;SDS011;26233;51.894;10.192;2023-02-15T09:47:47;5.75;;;5.25;;
40533;SDS011;26233;51.894;10.192;2023-02-15T09:50:43;6.05;;;5.50;;
40533;SDS011;26233;51.894;10.192;2023-02-15T09:53:26;6.05;;;5.45;;
40533;SDS011;26233;51.894;10.192;2023-02-15T09:56:06;6.35;;;5.75;;
40533;SDS011;26233;51.894;10.192;2023-02-15T09:58:45;6.88;;;6.28;;
40533;SDS011;26233;51.894;10.192;2023-02-15T10:01:21;6.68;;;5.97;;
40533;SDS011;26233;51.894;10.192;2023-02-15T10:04:07;6.57;;;5.97;;
40533;SDS011;26233;51.894;10.192;2023-02-15T10:06:50;5.63;;;5.13;;
40533;SDS011;26233;51.894;10.192;2023-02-15T10:09:36;5.30;;;4.80;;
40533;SDS011;26233;51.894;10.192;2023-02-15T10:18:27;7.22;;;5.22;;
40533;SDS011;26233;51.894;10.192;2023-02-15T10:21:15;6.18;;;5.57;;
40533;SDS011;26233;51.894;10.192;2023-02-15T10:24:00;6.35;;;5.70;;
40533;SDS011;26233;51.894;10.192;2023-02-15T10:27:04;5.80;;;5.15;;
40533;SDS011;26233;51.894;10.192;2023-02-15T10:29:39;6.15;;;5.53;;
40533;SDS011;26233;51.894;10.192;2023-02-15T10:32:19;6.38;;;5.50;;
40533;SDS011;26233;51.894;10.192;2023-02-15T10:34:51;6.72;;;6.03;;
40533;SDS011;26233;51.894;10.192;2023-02-15T10:37:32;6.40;;;5.80;;
40533;SDS011;26233;51.894;10.192;2023-02-15T10:40:20;7.43;;;6.70;;
40533;SDS011;26233;51.894;10.192;2023-02-15T10:43:08;7.57;;;6.78;;
40533;SDS011;26233;51.894;10.192;2023-02-15T10:45:49;7.65;;;6.78;;
40533;SDS011;26233;51.894;10.192;2023-02-15T10:48:33;9.50;;;8.55;;
40533;SDS011;26233;51.894;10.192;2023-02-15T10:51:19;9.65;;;8.65;;
40533;SDS011;26233;51.894;10.192;2023-02-15T10:53:57;10.55;;;8.75;;
40533;SDS011;26233;51.894;10.192;2023-02-15T10:56:36;9.02;;;7.90;;
40533;SDS011;26233;51.894;10.192;2023-02-15T10:59:22;6.95;;;6.28;;
40533;SDS011;26233;51.894;10.192;2023-02-15T11:02:10;6.80;;;6.18;;
40533;SDS011;26233;51.894;10.192;2023-02-15T11:04:55;7.00;;;6.40;;
40533;SDS011;26233;51.894;10.192;2023-02-15T11:07:35;6.18;;;5.68;;
40533;SDS011;26233;51.894;10.192;2023-02-15T11:10:11;6.00;;;5.47;;
40533;SDS011;26233;51.894;10.192;2023-02-15T11:12:52;5.85;;;5.30;;
40533;SDS011;26233;51.894;10.192;2023-02-15T11:15:23;6.03;;;5.43;;
40533;SDS011;26233;51.894;10.192;2023-02-15T11:17:57;6.05;;;5.45;;
40533;SDS011;26233;51.894;10.192;2023-02-15T11:20:33;5.15;;;4.75;;
40533;SDS011;26233;51.894;10.192;2023-02-15T11:23:12;6.00;;;5.40;;
40533;SDS011;26233;51.894;10.192;2023-02-15T11:25:44;5.15;;;4.75;;
40533;SDS011;26233;51.894;10.192;2023-02-15T11:28:22;5.72;;;5.22;;
40533;SDS011;26233;51.894;10.192;2023-02-15T11:30:56;5.47;;;4.97;;
40533;SDS011;26233;51.894;10.192;2023-02-15T11:33:29;6.22;;;5.63;;
40533;SDS011;26233;51.894;10.192;2023-02-15T11:36:04;8.00;;;6.72;;
40533;SDS011;26233;51.894;10.192;2023-02-15T11:38:35;9.75;;;6.85;;
40533;SDS011;26233;51.894;10.192;2023-02-15T11:41:05;7.22;;;6.45;;
40533;SDS011;26233;51.894;10.192;2023-02-15T11:43:37;6.18;;;5.57;;
40533;SDS011;26233;51.894;10.192;2023-02-15T11:46:08;7.00;;;6.30;;
40533;SDS011;26233;51.894;10.192;2023-02-15T11:48:40;7.30;;;6.60;;
40533;SDS011;26233;51.894;10.192;2023-02-15T11:51:11;7.85;;;6.30;;
40533;SDS011;26233;51.894;10.192;2023-02-15T11:53:44;8.70;;;6.75;;
40533;SDS011;26233;51.894;10.192;2023-02-15T11:56:13;7.53;;;6.45;;
40533;SDS011;26233;51.894;10.192;2023-02-15T11:58:44;8.90;;;7.10;;
40533;SDS011;26233;51.894;10.192;2023-02-15T12:01:16;9.50;;;7.55;;
40533;SDS011;26233;51.894;10.192;2023-02-15T12:03:51;8.23;;;7.05;;
40533;SDS011;26233;51.894;10.192;2023-02-15T12:06:24;8.50;;;6.32;;
40533;SDS011;26233;51.894;10.192;2023-02-15T12:08:56;6.93;;;6.22;;
40533;SDS011;26233;51.894;10.192;2023-02-15T12:11:32;7.13;;;5.80;;
40533;SDS011;26233;51.894;10.192;2023-02-15T12:14:04;8.45;;;6.90;;
40533;SDS011;26233;51.894;10.192;2023-02-15T12:16:34;7.20;;;6.40;;
40533;SDS011;26233;51.894;10.192;2023-02-15T12:19:13;9.07;;;7.18;;
40533;SDS011;26233;51.894;10.192;2023-02-15T12:21:57;8.85;;;6.90;;
40533;SDS011;26233;51.894;10.192;2023-02-15T12:24:27;9.68;;;7.57;;
40533;SDS011;26233;51.894;10.192;2023-02-15T12:27:01;8.27;;;6.90;;
40533;SDS011;26233;51.894;10.192;2023-02-15T12:29:30;7.47;;;6.55;;
40533;SDS011;26233;51.894;10.192;2023-02-15T12:32:02;7.68;;;6.57;;
40533;SDS011;26233;51.894;10.192;2023-02-15T12:34:30;6.90;;;6.22;;
40533;SDS011;26233;51.894;10.192;2023-02-15T12:37:09;8.35;;;6.50;;
40533;SDS011;26233;51.894;10.192;2023-02-15T12:39:50;9.00;;;6.50;;
40533;SDS011;26233;51.894;10.192;2023-02-15T12:42:20;7.43;;;6.22;;
40533;SDS011;26233;51.894;10.192;2023-02-15T12:44:58;8.20;;;6.47;;
40533;SDS011;26233;51.894;10.192;2023-02-15T12:47:27;6.85;;;6.15;;
40533;SDS011;26233;51.894;10.192;2023-02-15T12:50:05;7.32;;;6.15;;
40533;SDS011;26233;51.894;10.192;2023-02-15T12:52:43;8.75;;;6.32;;
40533;SDS011;26233;51.894;10.192;2023-02-15T12:55:18;6.88;;;6.13;;
40533;SDS011;26233;51.894;10.192;2023-02-15T12:57:48;7.65;;;6.85;;
40533;SDS011;26233;51.894;10.192;2023-02-15T13:00:31;8.95;;;7.05;;
40533;SDS011;26233;51.894;10.192;2023-02-15T13:02:59;9.05;;;6.97;;
40533;SDS011;26233;51.894;10.192;2023-02-15T13:05:29;9.75;;;7.78;;
40533;SDS011;26233;51.894;10.192;2023-02-15T13:08:03;8.60;;;7.50;;
40533;SDS011;26233;51.894;10.192;2023-02-15T13:10:39;9.00;;;6.97;;
40533;SDS011;26233;51.894;10.192;2023-02-15T13:13:19;8.60;;;7.50;;
40533;SDS011;26233;51.894;10.192;2023-02-15T13:15:49;8.38;;;7.15;;
40533;SDS011;26233;51.894;10.192;2023-02-15T13:18:19;8.05;;;6.85;;
40533;SDS011;26233;51.894;10.192;2023-02-15T13:20:56;7.60;;;6.60;;
40533;SDS011;26233;51.894;10.192;2023-02-15T13:23:32;7.95;;;7.15;;
40533;SDS011;26233;51.894;10.192;2023-02-15T13:26:02;8.38;;;6.60;;
40533;SDS011;26233;51.894;10.192;2023-02-15T13:28:33;8.68;;;7.35;;
40533;SDS011;26233;51.894;10.192;2023-02-15T13:31:07;9.65;;;7.68;;
40533;SDS011;26233;51.894;10.192;2023-02-15T13:33:39;9.00;;;7.28;;
40533;SDS011;26233;51.894;10.192;2023-02-15T13:36:13;7.90;;;6.93;;
40533;SDS011;26233;51.894;10.192;2023-02-15T13:38:51;7.60;;;6.22;;
40533;SDS011;26233;51.894;10.192;2023-02-15T13:41:30;9.95;;;7.03;;
40533;SDS011;26233;51.894;10.192;2023-02-15T13:44:03;8.50;;;7.30;;
40533;SDS011;26233;51.894;10.192;2023-02-15T13:46:47;7.97;;;7.10;;
40533;SDS011;26233;51.894;10.192;2023-02-15T13:49:31;8.32;;;6.97;;
40533;SDS011;26233;51.894;10.192;2023-02-15T13:52:18;7.57;;;6.80;;
40533;SDS011;26233;51.894;10.192;2023-02-15T13:54:57;8.52;;;7.50;;
40533;SDS011;26233;51.894;10.192;2023-02-15T13:57:56;7.38;;;6.43;;
40533;SDS011;26233;51.894;10.192;2023-02-15T14:00:46;7.53;;;6.10;;
40533;SDS011;26233;51.894;10.192;2023-02-15T14:06:40;6.75;;;6.07;;
40533;SDS011;26233;51.894;10.192;2023-02-15T14:09:26;7.32;;;6.30;;
40533;SDS011;26233;51.894;10.192;2023-02-15T14:12:11;6.53;;;5.78;;
40533;SDS011;26233;51.894;10.192;2023-02-15T14:17:59;6.47;;;5.88;;
40533;SDS011;26233;51.894;10.192;2023-02-15T14:20:45;9.52;;;6.72;;
40533;SDS011;26233;51.894;10.192;2023-02-15T14:23:29;7.63;;;6.72;;
40533;SDS011;26233;51.894;10.192;2023-02-15T14:26:11;6.45;;;5.85;;
40533;SDS011;26233;51.894;10.192;2023-02-15T14:28:51;6.97;;;6.28;;
40533;SDS011;26233;51.894;10.192;2023-02-15T14:31:28;7.50;;;6.70;;
40533;SDS011;26233;51.894;10.192;2023-02-15T14:34:00;6.90;;;6.20;;
40533;SDS011;26233;51.894;10.192;2023-02-15T14:36:29;7.32;;;6.60;;
40533;SDS011;26233;51.894;10.192;2023-02-15T14:39:00;7.65;;;6.78;;
40533;SDS011;26233;51.894;10.192;2023-02-15T14:41:55;6.93;;;6.22;;
40533;SDS011;26233;51.894;10.192;2023-02-15T14:44:32;6.97;;;6.38;;
40533;SDS011;26233;51.894;10.192;2023-02-15T14:47:04;7.20;;;6.50;;
40533;SDS011;26233;51.894;10.192;2023-02-15T14:49:37;7.35;;;6.55;;
40533;SDS011;26233;51.894;10.192;2023-02-15T14:52:06;6.68;;;6.07;;
40533;SDS011;26233;51.894;10.192;2023-02-15T14:57:25;6.72;;;6.13;;
40533;SDS011;26233;51.894;10.192;2023-02-15T14:59:57;7.32;;;6.63;;
40533;SDS011;26233;51.894;10.192;2023-02-15T15:02:39;6.35;;;5.82;;
40533;SDS011;26233;51.894;10.192;2023-02-15T15:05:11;6.65;;;6.05;;
40533;SDS011;26233;51.894;10.192;2023-02-15T15:07:45;6.40;;;5.80;;
40533;SDS011;26233;51.894;10.192;2023-02-15T15:16:29;6.45;;;5.85;;
40533;SDS011;26233;51.894;10.192;2023-02-15T15:19:56;6.00;;;5.50;;
40533;SDS011;26233;51.894;10.192;2023-02-15T15:22:38;5.78;;;5.28;;
40533;SDS011;26233;51.894;10.192;2023-02-15T15:28:07;6.00;;;5.50;;
40533;SDS011;26233;51.894;10.192;2023-02-15T15:43:14;5.95;;;5.32;;
40533;SDS011;26233;51.894;10.192;2023-02-15T15:46:28;6.28;;;5.65;;
40533;SDS011;26233;51.894;10.192;2023-02-15T15:49:16;6.10;;;5.50;;
40533;SDS011;26233;51.894;10.192;2023-02-15T15:51:46;7.18;;;6.47;;
40533;SDS011;26233;51.894;10.192;2023-02-15T15:54:15;7.07;;;6.38;;
40533;SDS011;26233;51.894;10.192;2023-02-15T15:56:48;6.35;;;5.75;;